createdAt,value
2018-04-25T00:02:31.498Z,4.50
2018-04-25T00:05:34.792Z,4.90
2018-04-25T00:08:38.273Z,4.87
2018-04-25T00:11:42.176Z,4.60
2018-04-25T00:14:45.493Z,4.90
2018-04-25T00:17:49.927Z,4.57
2018-04-25T00:20:54.207Z,4.30
2018-04-25T00:23:58.539Z,4.63
2018-04-25T00:27:02.011Z,4.70
2018-04-25T00:30:05.291Z,4.70
2018-04-25T00:33:08.657Z,4.73
2018-04-25T00:36:12.880Z,4.57
2018-04-25T00:39:16.195Z,4.87
2018-04-25T00:42:19.504Z,5.03
2018-04-25T00:45:22.781Z,4.63
2018-04-25T00:48:27.192Z,4.70
2018-04-25T00:51:30.522Z,4.63
2018-04-25T00:54:33.868Z,4.80
2018-04-25T00:57:38.313Z,5.13
2018-04-25T01:00:42.386Z,5.07
2018-04-25T01:03:45.748Z,4.90
2018-04-25T01:06:50.056Z,4.90
2018-04-25T01:09:53.348Z,5.07
2018-04-25T01:12:56.749Z,5.17
2018-04-25T01:16:00.254Z,5.07
2018-04-25T01:19:03.601Z,5.20
2018-04-25T01:22:06.948Z,5.17
2018-04-25T01:25:10.309Z,5.03
2018-04-25T01:28:14.672Z,5.10
2018-04-25T01:31:18.547Z,4.83
2018-04-25T01:34:22.273Z,5.23
2018-04-25T01:37:31.156Z,4.90
2018-04-25T01:40:34.492Z,5.10
2018-04-25T01:43:37.865Z,4.93
2018-04-25T01:46:43.228Z,5.70
2018-04-25T01:49:46.636Z,5.77
2018-04-25T01:53:01.249Z,5.00
2018-04-25T01:56:15.772Z,5.73
2018-04-25T01:59:30.356Z,5.43
2018-04-25T02:02:36.928Z,5.63
2018-04-25T02:05:40.174Z,5.13
2018-04-25T02:08:44.706Z,5.30
2018-04-25T02:11:48.009Z,6.00
2018-04-25T02:14:51.408Z,5.43
2018-04-25T02:17:54.808Z,5.90
2018-04-25T02:20:58.112Z,5.83
2018-04-25T02:24:02.531Z,5.77
2018-04-25T02:27:05.820Z,6.37
2018-04-25T02:30:09.150Z,6.50
2018-04-25T02:33:13.252Z,6.00
2018-04-25T02:36:16.640Z,6.43
2018-04-25T02:39:19.935Z,6.23
2018-04-25T02:42:23.283Z,5.87
2018-04-25T02:45:26.627Z,6.87
2018-04-25T02:48:29.964Z,6.50
2018-04-25T02:51:33.292Z,6.43
2018-04-25T02:54:36.625Z,6.37
2018-04-25T02:57:39.922Z,6.20
2018-04-25T03:00:44.355Z,6.67
2018-04-25T03:03:47.744Z,6.63
2018-04-25T03:06:51.001Z,6.90
2018-04-25T03:09:54.299Z,6.33
2018-04-25T03:12:57.609Z,6.50
2018-04-25T03:16:01.317Z,6.43
2018-04-25T03:19:04.640Z,6.23
2018-04-25T03:22:08.040Z,6.53
2018-04-25T03:25:11.936Z,5.87
2018-04-25T03:28:15.187Z,6.90
2018-04-25T03:31:18.838Z,6.03
2018-04-25T03:34:22.155Z,6.70
2018-04-25T03:37:25.452Z,6.27
2018-04-25T03:40:28.888Z,6.43
2018-04-25T03:43:32.264Z,6.23
2018-04-25T03:46:35.446Z,6.73
2018-04-25T03:49:38.841Z,6.53
2018-04-25T03:52:42.775Z,6.80
2018-04-25T03:55:47.188Z,7.77
2018-04-25T03:58:50.586Z,6.97
2018-04-25T04:01:53.893Z,7.17
2018-04-25T04:04:57.235Z,7.10
2018-04-25T04:08:00.484Z,7.20
2018-04-25T04:11:04.833Z,6.77
2018-04-25T04:14:08.103Z,7.10
2018-04-25T04:17:12.286Z,6.90
2018-04-25T04:20:15.530Z,7.00
2018-04-25T04:23:19.108Z,7.30
2018-04-25T04:26:22.601Z,6.87
2018-04-25T04:29:26.112Z,7.07
2018-04-25T04:32:30.030Z,6.50
2018-04-25T04:35:33.581Z,7.30
2018-04-25T04:38:37.264Z,7.73
2018-04-25T04:41:41.123Z,6.97
2018-04-25T04:44:45.265Z,7.33
2018-04-25T04:47:49.589Z,6.90
2018-04-25T04:50:53.251Z,7.37
2018-04-25T04:53:56.924Z,7.47
2018-04-25T04:57:00.323Z,7.07
2018-04-25T05:00:04.196Z,7.47
2018-04-25T05:03:07.720Z,7.77
2018-04-25T05:06:11.366Z,7.50
2018-04-25T05:09:15.302Z,7.00
2018-04-25T05:12:18.816Z,7.37
2018-04-25T05:15:22.389Z,7.10
2018-04-25T05:18:25.927Z,7.23
2018-04-25T05:21:29.471Z,8.43
2018-04-25T05:24:33.385Z,7.70
2018-04-25T05:27:36.580Z,7.40
2018-04-25T05:30:39.976Z,7.13
2018-04-25T05:33:43.291Z,7.67
2018-04-25T05:36:46.623Z,8.13
2018-04-25T05:39:49.752Z,8.67
2018-04-25T05:42:53.909Z,8.37
2018-04-25T05:45:57.385Z,7.60
2018-04-25T05:49:00.582Z,7.77
2018-04-25T05:52:03.889Z,7.40
2018-04-25T05:55:07.317Z,8.03
2018-04-25T05:58:10.677Z,8.07
2018-04-25T06:01:13.997Z,8.90
2018-04-25T06:04:17.339Z,8.60
2018-04-25T06:07:21.649Z,7.67
2018-04-25T06:10:25.049Z,7.00
2018-04-25T06:13:28.376Z,7.57
2018-04-25T06:16:32.751Z,6.70
2018-04-25T06:19:36.220Z,7.13
2018-04-25T06:22:39.853Z,6.97
2018-04-25T06:25:43.175Z,7.10
2018-04-25T06:28:46.613Z,6.73
2018-04-25T06:31:50.040Z,6.27
2018-04-25T06:34:53.485Z,8.40
2018-04-25T06:37:56.775Z,7.20
2018-04-25T06:41:00.128Z,6.30
2018-04-25T06:44:03.444Z,5.83
2018-04-25T06:47:06.705Z,5.00
2018-04-25T06:50:10.099Z,5.50
2018-04-25T06:53:14.427Z,5.30
2018-04-25T06:56:18.749Z,5.03
2018-04-25T06:59:22.796Z,4.73
2018-04-25T07:02:26.193Z,5.13
2018-04-25T07:05:29.468Z,5.20
2018-04-25T07:08:32.881Z,5.23
2018-04-25T07:11:36.288Z,4.67
2018-04-25T07:14:39.552Z,4.53
2018-04-25T07:17:42.943Z,5.17
2018-04-25T07:20:46.336Z,5.60
2018-04-25T07:23:49.767Z,4.60
2018-04-25T07:26:53.423Z,5.50
2018-04-25T07:29:56.745Z,4.37
2018-04-25T07:33:00.085Z,4.53
2018-04-25T07:36:05.465Z,4.73
2018-04-25T07:39:08.789Z,4.60
2018-04-25T07:42:12.100Z,5.13
2018-04-25T07:45:15.628Z,5.43
2018-04-25T07:48:19.065Z,5.73
2018-04-25T07:51:23.452Z,4.60
2018-04-25T07:54:26.807Z,4.23
2018-04-25T07:57:30.125Z,4.40
2018-04-25T08:00:33.596Z,5.53
2018-04-25T08:03:36.923Z,5.20
2018-04-25T08:06:40.293Z,5.17
2018-04-25T08:09:44.607Z,4.97
2018-04-25T08:13:59.597Z,5.97
2018-04-25T08:18:16.164Z,4.80
2018-04-25T08:21:20.526Z,5.43
2018-04-25T08:24:24.888Z,5.50
2018-04-25T08:27:29.220Z,5.70
2018-04-25T08:30:32.580Z,6.07
2018-04-25T08:33:35.939Z,5.17
2018-04-25T08:36:39.149Z,5.83
2018-04-25T08:39:42.484Z,5.60
2018-04-25T08:42:45.819Z,4.17
2018-04-25T08:45:49.218Z,4.40
2018-04-25T08:48:53.859Z,4.00
2018-04-25T08:51:57.146Z,4.30
2018-04-25T08:55:00.481Z,4.10
2018-04-25T08:58:03.736Z,4.53
2018-04-25T09:01:07.085Z,4.13
2018-04-25T09:04:10.352Z,4.13
2018-04-25T09:07:13.730Z,4.27
2018-04-25T09:10:17.079Z,4.73
2018-04-25T09:13:20.509Z,4.47
2018-04-25T09:16:24.532Z,4.80
2018-04-25T09:19:27.850Z,4.27
2018-04-25T09:22:36.245Z,4.17
2018-04-25T09:25:39.696Z,4.20
2018-04-25T09:28:42.990Z,5.10
2018-04-25T09:31:46.250Z,5.40
2018-04-25T09:34:49.474Z,5.27
2018-04-25T09:37:53.719Z,5.33
2018-04-25T09:40:57.073Z,5.00
2018-04-25T09:44:00.450Z,5.57
2018-04-25T09:47:03.771Z,6.03
2018-04-25T09:50:07.241Z,5.03
2018-04-25T09:53:10.559Z,5.10
2018-04-25T09:56:13.849Z,4.77
2018-04-25T09:59:17.251Z,5.13
2018-04-25T10:02:24.800Z,4.87
2018-04-25T10:05:28.183Z,4.60
2018-04-25T10:08:31.561Z,5.27
2018-04-25T10:11:34.969Z,4.10
2018-04-25T10:14:38.234Z,3.87
2018-04-25T10:17:41.674Z,4.77
2018-04-25T10:20:46.031Z,4.20
2018-04-25T10:23:49.326Z,4.33
2018-04-25T10:26:52.704Z,5.23
2018-04-25T10:29:55.984Z,4.03
2018-04-25T10:32:59.301Z,4.03
2018-04-25T10:36:02.675Z,3.57
2018-04-25T10:39:05.866Z,3.73
2018-04-25T10:42:09.165Z,3.57
2018-04-25T10:45:12.532Z,3.77
2018-04-25T10:48:15.756Z,3.70
2018-04-25T10:51:19.109Z,3.83
2018-04-25T10:54:23.615Z,3.73
2018-04-25T10:57:26.848Z,4.03
2018-04-25T11:00:31.507Z,3.50
2018-04-25T11:03:35.036Z,4.63
2018-04-25T11:06:38.427Z,3.80
2018-04-25T11:09:41.681Z,3.50
2018-04-25T11:12:45.009Z,6.63
2018-04-25T11:15:48.190Z,3.63
2018-04-25T11:18:52.789Z,3.60
2018-04-25T11:21:56.039Z,3.67
2018-04-25T11:24:59.373Z,4.00
2018-04-25T11:28:02.692Z,3.30
2018-04-25T11:31:06.102Z,3.43
2018-04-25T11:34:09.365Z,3.20
2018-04-25T11:37:13.094Z,3.43
2018-04-25T11:40:16.728Z,3.70
2018-04-25T11:43:20.118Z,3.83
2018-04-25T11:46:24.130Z,3.70
2018-04-25T11:49:27.411Z,3.57
2018-04-25T11:52:30.979Z,3.40
2018-04-25T11:55:34.246Z,2.90
2018-04-25T11:58:37.564Z,3.10
2018-04-25T12:01:41.943Z,2.83
2018-04-25T12:04:45.322Z,2.70
2018-04-25T12:07:48.647Z,3.53
2018-04-25T12:10:52.525Z,2.43
2018-04-25T12:13:56.936Z,3.07
2018-04-25T12:17:00.385Z,2.60
2018-04-25T12:20:03.767Z,2.50
2018-04-25T12:23:07.446Z,2.47
2018-04-25T12:26:10.747Z,3.07
2018-04-25T12:29:14.167Z,2.37
2018-04-25T12:32:17.475Z,2.97
2018-04-25T12:35:20.772Z,2.57
2018-04-25T12:38:24.146Z,2.70
2018-04-25T12:41:27.424Z,2.87
2018-04-25T12:44:30.774Z,3.50
2018-04-25T12:47:34.075Z,2.70
2018-04-25T12:50:38.408Z,2.60
2018-04-25T12:53:41.680Z,2.50
2018-04-25T12:56:45.097Z,2.70
2018-04-25T12:59:51.639Z,2.43
2018-04-25T13:02:54.983Z,2.50
2018-04-25T13:05:58.372Z,2.70
2018-04-25T13:09:01.741Z,2.60
2018-04-25T13:12:05.067Z,2.70
2018-04-25T13:15:08.450Z,2.53
2018-04-25T13:18:12.900Z,3.07
2018-04-25T13:21:16.286Z,2.60
2018-04-25T13:24:20.632Z,2.43
2018-04-25T13:27:23.995Z,2.40
2018-04-25T13:30:27.299Z,2.43
2018-04-25T13:33:30.527Z,2.27
2018-04-25T13:36:33.774Z,2.50
2018-04-25T13:39:37.380Z,2.10
2018-04-25T13:42:40.688Z,1.73
2018-04-25T13:45:44.165Z,1.70
2018-04-25T13:48:47.620Z,1.87
2018-04-25T13:51:51.000Z,2.07
2018-04-25T13:54:54.483Z,2.03
2018-04-25T13:57:57.672Z,2.00
2018-04-25T14:01:00.961Z,2.00
2018-04-25T14:04:04.308Z,1.80
2018-04-25T14:07:07.768Z,1.77
2018-04-25T14:10:11.067Z,2.00
2018-04-25T14:13:14.423Z,2.10
2018-04-25T14:16:17.694Z,1.80
2018-04-25T14:19:20.924Z,1.80
2018-04-25T14:22:24.276Z,1.70
2018-04-25T14:25:28.714Z,1.70
2018-04-25T14:28:32.126Z,1.27
2018-04-25T14:31:35.525Z,1.23
2018-04-25T14:34:38.820Z,1.23
2018-04-25T14:37:42.227Z,1.50
2018-04-25T14:40:45.399Z,1.40
2018-04-25T14:43:48.695Z,1.30
2018-04-25T14:46:52.094Z,1.90
2018-04-25T14:49:55.377Z,1.50
2018-04-25T14:52:58.704Z,1.57
2018-04-25T14:56:02.085Z,2.40
2018-04-25T14:59:05.863Z,1.20
2018-04-25T15:02:09.353Z,1.40
2018-04-25T15:05:12.722Z,1.70
2018-04-25T15:08:16.011Z,1.53
2018-04-25T15:11:19.416Z,1.40
2018-04-25T15:14:23.791Z,1.37
2018-04-25T15:17:27.005Z,1.50
2018-04-25T15:20:30.401Z,1.57
2018-04-25T15:23:33.684Z,1.60
2018-04-25T15:26:37.187Z,1.20
2018-04-25T15:29:40.530Z,1.33
2018-04-25T15:32:45.341Z,1.10
2018-04-25T15:35:48.606Z,1.43
2018-04-25T15:38:51.937Z,1.40
2018-04-25T15:41:55.257Z,1.40
2018-04-25T15:44:58.679Z,1.10
2018-04-25T15:48:02.112Z,1.43
2018-04-25T15:51:06.059Z,1.20
2018-04-25T15:54:09.419Z,1.37
2018-04-25T15:57:12.740Z,1.60
2018-04-25T16:00:17.131Z,1.00
2018-04-25T16:03:20.516Z,1.30
2018-04-25T16:06:24.819Z,1.37
2018-04-25T16:09:28.214Z,1.30
2018-04-25T16:12:31.590Z,1.40
2018-04-25T16:15:35.972Z,1.13
2018-04-25T16:18:39.424Z,1.33
2018-04-25T16:21:42.726Z,1.30
2018-04-25T16:24:46.196Z,1.10
2018-04-25T16:27:49.479Z,1.03
2018-04-25T16:30:52.814Z,1.20
2018-04-25T16:33:57.164Z,1.40
2018-04-25T16:37:00.519Z,1.13
2018-04-25T16:40:04.792Z,0.93
2018-04-25T16:43:08.273Z,1.23
2018-04-25T16:46:11.461Z,1.10
2018-04-25T16:49:14.719Z,1.07
2018-04-25T16:52:18.005Z,0.90
2018-04-25T16:55:21.436Z,0.90
2018-04-25T16:58:25.058Z,0.93
2018-04-25T17:01:28.426Z,0.87
2018-04-25T17:04:31.752Z,1.20
2018-04-25T17:07:36.642Z,0.90
2018-04-25T17:10:40.063Z,0.97
2018-04-25T17:13:43.488Z,1.00
2018-04-25T17:16:46.652Z,0.93
2018-04-25T17:19:49.916Z,0.90
2018-04-25T17:22:57.037Z,0.97
2018-04-25T17:26:01.328Z,1.20
2018-04-25T17:29:05.380Z,1.17
2018-04-25T17:32:08.941Z,1.00
2018-04-25T17:35:12.289Z,0.87
2018-04-25T17:38:15.603Z,1.00
2018-04-25T17:41:19.042Z,0.90
2018-04-25T17:44:23.641Z,1.00
2018-04-25T17:47:27.032Z,1.20
2018-04-25T17:50:30.340Z,1.00
2018-04-25T17:53:33.615Z,1.10
2018-04-25T17:56:37.091Z,1.20
2018-04-25T17:59:40.361Z,3.47
2018-04-25T18:02:43.711Z,1.43
2018-04-25T18:05:47.092Z,1.83
2018-04-25T18:08:51.356Z,1.63
2018-04-25T18:11:54.688Z,1.70
2018-04-25T18:14:57.905Z,1.87
2018-04-25T18:18:01.963Z,1.40
2018-04-25T18:21:05.537Z,1.30
2018-04-25T18:24:08.983Z,1.20
2018-04-25T18:27:12.290Z,1.30
2018-04-25T18:30:16.608Z,1.20
2018-04-25T18:33:19.924Z,1.10
2018-04-25T18:36:24.157Z,1.13
2018-04-25T18:39:27.368Z,0.90
2018-04-25T18:42:30.872Z,1.10
2018-04-25T18:45:34.097Z,1.20
2018-04-25T18:48:37.376Z,1.10
2018-04-25T18:51:41.631Z,0.97
2018-04-25T18:54:44.840Z,1.10
2018-04-25T18:57:49.206Z,0.97
2018-04-25T19:00:53.433Z,1.10
2018-04-25T19:03:56.725Z,1.20
2018-04-25T19:07:00.205Z,1.30
2018-04-25T19:10:03.581Z,1.10
2018-04-25T19:13:06.824Z,1.30
2018-04-25T19:16:10.122Z,1.23
2018-04-25T19:19:13.350Z,1.57
2018-04-25T19:22:16.623Z,1.40
2018-04-25T19:25:19.889Z,1.37
2018-04-25T19:28:24.608Z,1.50
2018-04-25T19:31:27.970Z,1.43
2018-04-25T19:34:31.342Z,1.43
2018-04-25T19:37:34.812Z,1.20
2018-04-25T19:40:38.656Z,1.30
2018-04-25T19:43:42.228Z,1.50
2018-04-25T19:46:45.582Z,1.20
2018-04-25T19:49:49.248Z,1.33
2018-04-25T19:52:53.683Z,1.20
2018-04-25T19:55:57.093Z,1.23
2018-04-25T19:59:00.328Z,1.20
2018-04-25T20:02:03.559Z,1.40
2018-04-25T20:05:06.997Z,1.40
2018-04-25T20:08:10.263Z,1.20
2018-04-25T20:11:13.584Z,1.30
2018-04-25T20:14:16.779Z,1.20
2018-04-25T20:17:20.116Z,1.20
2018-04-25T20:20:24.631Z,1.30
2018-04-25T20:23:27.895Z,1.40
2018-04-25T20:26:31.275Z,1.20
2018-04-25T20:29:34.607Z,1.30
2018-04-25T20:32:37.996Z,1.47
2018-04-25T20:35:41.473Z,1.53
2018-04-25T20:38:44.763Z,1.57
2018-04-25T20:41:49.161Z,1.27
2018-04-25T20:44:53.284Z,1.20
2018-04-25T20:47:56.635Z,1.47
2018-04-25T20:50:59.848Z,1.40
2018-04-25T20:54:04.981Z,1.70
2018-04-25T20:57:09.092Z,1.77
2018-04-25T21:00:13.163Z,1.50
2018-04-25T21:03:17.009Z,1.80
2018-04-25T21:06:21.320Z,1.80
2018-04-25T21:09:25.506Z,1.90
2018-04-25T21:12:29.332Z,1.40
2018-04-25T21:15:32.983Z,1.70
2018-04-25T21:18:37.578Z,1.57
2018-04-25T21:21:40.906Z,1.60
2018-04-25T21:24:45.125Z,1.90
2018-04-25T21:27:48.253Z,2.00
2018-04-25T21:30:51.488Z,1.90
2018-04-25T21:33:54.768Z,1.90
2018-04-25T21:36:58.097Z,2.10
2018-04-25T21:40:01.389Z,1.90
2018-04-25T21:43:04.670Z,2.10
2018-04-25T21:46:08.473Z,2.10
2018-04-25T21:49:11.768Z,2.00
2018-04-25T21:52:16.140Z,2.33
2018-04-25T21:55:19.414Z,2.60
2018-04-25T21:58:22.718Z,3.07
2018-04-25T22:01:27.021Z,3.20
2018-04-25T22:04:30.228Z,3.20
2018-04-25T22:07:33.425Z,2.77
2018-04-25T22:10:36.833Z,3.07
2018-04-25T22:13:40.297Z,2.90
2018-04-25T22:16:43.937Z,2.83
2018-04-25T22:19:47.252Z,2.73
2018-04-25T22:22:50.624Z,2.87
2018-04-25T22:25:53.930Z,2.73
2018-04-25T22:28:57.348Z,2.93
2018-04-25T22:32:00.653Z,2.80
2018-04-25T22:35:04.023Z,3.00
2018-04-25T22:38:07.336Z,3.00
2018-04-25T22:41:10.638Z,3.00
2018-04-25T22:44:14.581Z,2.87
2018-04-25T22:47:17.712Z,2.67
2018-04-25T22:50:21.029Z,2.70
2018-04-25T22:53:24.259Z,2.80
2018-04-25T22:56:27.539Z,2.73
2018-04-25T22:59:30.803Z,2.83
2018-04-25T23:02:34.048Z,2.83
2018-04-25T23:05:37.255Z,2.90
2018-04-25T23:08:40.541Z,2.90
2018-04-25T23:11:44.129Z,3.37
2018-04-25T23:14:47.423Z,3.27
2018-04-25T23:17:50.744Z,3.20
2018-04-25T23:20:54.038Z,2.73
2018-04-25T23:23:57.295Z,2.77
2018-04-25T23:27:00.588Z,2.70
2018-04-25T23:30:03.892Z,2.90
2018-04-25T23:33:07.207Z,2.70
2018-04-25T23:36:10.530Z,3.03
2018-04-25T23:39:14.432Z,3.13
2018-04-25T23:42:17.693Z,3.30
2018-04-25T23:45:20.984Z,3.00
2018-04-25T23:48:24.259Z,3.03
2018-04-25T23:51:27.610Z,2.90
2018-04-25T23:54:30.953Z,3.20
2018-04-25T23:57:34.296Z,2.83
